Time;durP1;ratioP1;P1;durP2;ratioP2;P2;SDS_P1;SDS_P2;PMS_P1;PMS_P2;Temp;Humidity;BMP_temperature;BMP_pressure;BME280_temperature;BME280_humidity;BME280_pressure;Samples;Min_cycle;Max_cycle;Signal;HPM_P1;HPM_P2
2022/05/07 00:02:09;;;;;;;3.00;1.43;;;;;;;11.88;39.37;101181.03;1685401;84;21310;-71
2022/05/07 00:04:37;;;;;;;4.92;1.42;;;;;;;11.87;39.51;101182.02;1685983;84;21062;-70
2022/05/07 00:07:07;;;;;;;2.93;1.90;;;;;;;11.86;39.54;101174.18;1679472;84;21048;-69
2022/05/07 00:09:35;;;;;;;2.47;1.27;;;;;;;11.87;39.84;101177.20;1673624;84;21645;-70
2022/05/07 00:12:06;;;;;;;2.03;1.87;;;;;;;11.84;40.24;101175.69;1684520;84;21027;-70
2022/05/07 00:14:33;;;;;;;4.33;1.60;;;;;;;11.81;40.33;101169.86;1668373;84;20984;-71
2022/05/07 00:19:46;;;;;;;1.93;1.60;;;;;;;11.74;40.41;101170.27;1685922;84;21118;-71
2022/05/07 00:22:14;;;;;;;3.83;1.23;;;;;;;11.72;40.68;101163.75;1685535;84;21082;-71
2022/05/07 00:24:40;;;;;;;3.93;1.77;;;;;;;11.71;40.70;101162.08;1671724;84;21099;-70
2022/05/07 00:27:06;;;;;;;7.12;1.65;;;;;;;11.71;40.62;101171.42;1686078;84;21085;-71
2022/05/07 00:29:34;;;;;;;2.77;2.40;;;;;;;11.71;40.77;101170.09;1658303;85;21088;-70
2022/05/07 00:32:00;;;;;;;2.98;1.87;;;;;;;11.68;40.59;101166.45;1658311;84;21497;-69
2022/05/07 00:34:26;;;;;;;3.92;2.10;;;;;;;11.69;40.57;101165.43;1658276;84;21040;-70
2022/05/07 00:36:54;;;;;;;8.90;2.47;;;;;;;11.70;40.59;101164.44;1658445;84;21060;-70
2022/05/07 00:39:20;;;;;;;;;;;;;;;11.67;40.80;101158.10;1660776;85;21080;-70
2022/05/07 00:41:46;;;;;;;5.10;2.20;;;;;;;11.66;40.73;101168.47;1682262;84;20098;-70
2022/05/07 00:44:12;;;;;;;6.50;1.98;;;;;;;11.61;40.63;101168.98;1685678;84;21125;-70
2022/05/07 00:46:40;;;;;;;3.27;1.73;;;;;;;11.62;40.64;101159.13;1685911;84;21078;-70
2022/05/07 00:49:07;;;;;;;6.47;2.70;;;;;;;11.63;40.65;101156.80;1677439;84;20968;-70
2022/05/07 00:51:33;;;;;;;2.93;1.87;;;;;;;11.62;40.53;101153.30;1685598;84;21153;-70
2022/05/07 00:54:04;;;;;;;4.53;2.50;;;;;;;11.63;40.55;101158.13;1664648;84;21039;-70
2022/05/07 00:56:32;;;;;;;6.23;2.67;;;;;;;11.63;40.71;101156.80;1685494;84;21098;-70
2022/05/07 00:58:59;;;;;;;9.93;2.77;;;;;;;11.62;40.50;101156.45;1685621;84;21658;-70
2022/05/07 01:01:26;;;;;;;3.08;1.82;;;;;;;11.62;40.35;101153.78;1685728;84;21137;-70
2022/05/07 01:03:53;;;;;;;4.37;1.70;;;;;;;11.63;40.47;101154.95;1685810;84;21094;-70
2022/05/07 01:06:21;;;;;;;2.37;1.87;;;;;;;11.61;40.45;101154.80;1688464;84;21129;-70
2022/05/07 01:08:49;;;;;;;4.73;1.70;;;;;;;11.59;40.41;101152.30;1685933;84;21062;-72
2022/05/07 01:11:17;;;;;;;7.30;2.90;;;;;;;11.56;40.55;101151.81;1685708;84;21019;-71
2022/05/07 01:13:47;;;;;;;4.43;2.07;;;;;;;11.54;40.42;101152.50;1685698;84;21503;-71
2022/05/07 01:16:14;;;;;;;5.67;2.97;;;;;;;11.54;40.42;101155.17;1685860;84;21537;-70
2022/05/07 01:18:43;;;;;;;7.53;2.80;;;;;;;11.53;40.34;101151.67;1685966;84;21174;-70
2022/05/07 01:21:17;;;;;;;2.67;2.10;;;;;;;11.53;40.27;101150.34;1685737;84;21086;-70
2022/05/07 01:23:47;;;;;;;6.20;2.40;;;;;;;11.54;40.13;101152.50;1685718;84;21156;-69
2022/05/07 01:26:20;;;;;;;9.57;2.63;;;;;;;11.55;40.05;101151.00;1685694;84;21019;-72
2022/05/07 01:28:47;;;;;;;10.60;3.00;;;;;;;11.57;40.06;101148.16;1685869;84;21047;-70
2022/05/07 01:31:13;;;;;;;10.30;2.60;;;;;;;11.57;40.04;101149.49;1685743;84;21074;-71
2022/05/07 01:33:40;;;;;;;;;;;;;;;11.56;40.03;101146.48;1688129;84;21059;-71
2022/05/07 01:36:16;;;;;;;4.77;2.50;;;;;;;11.54;40.15;101144.48;1685672;84;20189;-70
2022/05/07 01:38:38;;;;;;;5.67;2.80;;;;;;;11.41;40.49;101151.72;1684866;84;21071;-70
2022/05/07 01:41:04;;;;;;;4.80;2.80;;;;;;;11.37;40.44;101149.08;1685586;84;21042;-70
2022/05/07 01:43:32;;;;;;;9.23;3.83;;;;;;;11.34;40.43;101150.75;1685476;84;21099;-71
2022/05/07 01:46:01;;;;;;;4.03;2.27;;;;;;;11.30;40.58;101147.59;1685841;84;20975;-70
2022/05/07 01:48:28;;;;;;;4.53;3.27;;;;;;;11.28;40.46;101149.59;1685476;84;21590;-70
2022/05/07 01:50:55;;;;;;;8.43;2.60;;;;;;;11.26;40.71;101149.80;1685831;84;21027;-70
2022/05/07 01:53:26;;;;;;;7.87;2.73;;;;;;;11.22;40.68;101149.79;1685466;84;21652;-70
2022/05/07 01:55:53;;;;;;;5.10;2.57;;;;;;;11.18;40.96;101140.98;1668634;84;21686;-70
2022/05/07 01:58:21;;;;;;;4.83;2.77;;;;;;;11.16;40.76;101143.81;1684761;84;21045;-69
2022/05/07 02:00:47;;;;;;;4.65;2.98;;;;;;;11.14;41.07;101145.00;1685633;83;21022;-70
2022/05/07 02:03:14;;;;;;;10.40;3.02;;;;;;;11.12;41.04;101145.68;1677535;84;21591;-70
2022/05/07 02:05:40;;;;;;;4.83;3.25;;;;;;;11.09;41.12;101149.02;1676048;85;21563;-70
2022/05/07 02:08:07;;;;;;;7.33;3.17;;;;;;;11.06;41.26;101144.53;1685477;84;21551;-70
2022/05/07 02:10:34;;;;;;;3.85;2.58;;;;;;;11.02;41.21;101138.70;1685758;84;21067;-70
2022/05/07 02:13:02;;;;;;;7.87;4.40;;;;;;;10.99;41.38;101147.03;1685370;84;21007;-71
2022/05/07 02:15:31;;;;;;;6.40;2.40;;;;;;;10.96;41.40;101143.88;1685505;84;20996;-69
2022/05/07 02:17:58;;;;;;;4.43;3.43;;;;;;;10.96;41.43;101148.70;1685561;84;21082;-70
2022/05/07 02:20:24;;;;;;;3.83;2.95;;;;;;;10.96;41.51;101147.88;1685720;84;21087;-69
2022/05/07 02:22:55;;;;;;;4.87;2.53;;;;;;;10.92;41.59;101140.72;1685501;83;21598;-69
2022/05/07 02:25:25;;;;;;;4.60;3.80;;;;;;;10.90;41.55;101150.22;1685493;84;21031;-70
2022/05/07 02:27:53;;;;;;;3.33;2.97;;;;;;;10.90;41.60;101148.06;1685312;84;21523;-69
2022/05/07 02:30:20;;;;;;;6.63;4.00;;;;;;;10.88;41.52;101152.22;1685603;84;21007;-69
2022/05/07 02:32:47;;;;;;;;;;;;;;;10.86;41.57;101150.74;1691597;84;21001;-69
2022/05/07 02:35:14;;;;;;;7.73;3.23;;;;;;;10.88;41.46;101149.56;1657921;84;20135;-69
2022/05/07 02:37:43;;;;;;;10.30;3.47;;;;;;;10.85;41.64;101152.59;1671007;84;21110;-70
2022/05/07 02:40:10;;;;;;;4.27;3.27;;;;;;;10.86;41.45;101148.08;1713295;82;22200;-68
2022/05/07 02:42:37;;;;;;;7.27;3.93;;;;;;;10.90;41.52;101149.39;1701879;82;20996;-71
2022/05/07 02:45:13;;;;;;;5.70;3.33;;;;;;;10.90;41.50;101148.88;1666819;84;21021;-70
2022/05/07 02:47:43;;;;;;;4.87;3.67;;;;;;;10.90;41.52;101148.06;1658840;84;21012;-70
2022/05/07 02:50:11;;;;;;;7.47;3.67;;;;;;;10.90;41.39;101151.55;1695253;84;21236;-69
2022/05/07 02:52:39;;;;;;;5.53;3.67;;;;;;;10.95;41.45;101152.90;1674644;84;21150;-71
2022/05/07 02:55:09;;;;;;;9.07;4.10;;;;;;;10.96;41.43;101155.37;1659178;84;21100;-70
2022/05/07 02:57:36;;;;;;;5.70;3.17;;;;;;;10.98;41.33;101153.39;1658628;85;21093;-71
2022/05/07 03:00:05;;;;;;;7.20;3.52;;;;;;;11.00;41.35;101151.86;1682435;84;21086;-71
2022/05/07 03:02:34;;;;;;;7.90;3.47;;;;;;;11.03;41.39;101155.02;1685900;84;21637;-71
2022/05/07 03:05:00;;;;;;;7.97;3.17;;;;;;;11.04;41.28;101154.03;1695050;84;21583;-70
2022/05/07 03:07:27;;;;;;;6.83;4.00;;;;;;;11.09;41.22;101155.70;1668671;84;21044;-70
2022/05/07 03:09:54;;;;;;;5.43;3.83;;;;;;;11.10;41.22;101152.01;1677666;84;22225;-70
2022/05/07 03:12:20;;;;;;;4.85;3.37;;;;;;;11.12;41.23;101148.34;1658362;84;21030;-70
2022/05/07 03:14:47;;;;;;;;;;;;;;;11.12;41.12;101155.84;1687922;84;20971;-71
2022/05/07 03:17:13;;;;;;;11.73;3.83;;;;;;;11.13;41.20;101157.48;1685358;84;20127;-70
2022/05/07 03:19:39;;;;;;;;;;;;;;;11.06;41.25;101152.53;1688039;84;21039;-71
2022/05/07 03:22:05;;;;;;;5.43;3.37;;;;;;;11.10;41.16;101156.52;1670494;83;20131;-70
2022/05/07 03:24:37;;;;;;;9.77;4.00;;;;;;;11.07;41.24;101154.18;1658389;84;21048;-69
2022/05/07 03:27:03;;;;;;;9.30;4.13;;;;;;;11.10;41.29;101152.52;1658784;84;21100;-72
2022/05/07 03:29:29;;;;;;;6.07;3.13;;;;;;;11.15;41.11;101146.65;1658869;84;21519;-70
2022/05/07 03:31:58;;;;;;;8.07;4.07;;;;;;;11.19;40.98;101150.63;1659674;84;21029;-70
2022/05/07 03:34:24;;;;;;;5.05;3.30;;;;;;;11.21;41.02;101156.66;1658209;84;21059;-70
2022/05/07 03:36:50;;;;;;;6.35;3.33;;;;;;;11.25;40.93;101153.97;1673101;84;21107;-70
2022/05/07 03:39:17;;;;;;;11.90;4.30;;;;;;;11.32;40.90;101152.76;1684450;84;21102;-70
2022/05/07 03:41:44;;;;;;;9.77;4.07;;;;;;;11.38;40.70;101156.09;1685531;84;21066;-71
2022/05/07 03:44:11;;;;;;;4.83;3.70;;;;;;;11.44;40.72;101157.55;1685353;84;21109;-69
2022/05/07 03:46:38;;;;;;;7.23;4.47;;;;;;;11.48;40.47;101150.02;1666876;84;21067;-69
2022/05/07 03:49:05;;;;;;;6.33;3.70;;;;;;;11.46;40.58;101154.20;1685348;84;21035;-70
2022/05/07 03:53:29;;;;;;;6.03;3.67;;;;;;;11.47;40.48;101151.02;1685290;84;21139;-70
2022/05/07 03:54:02;;;;;;;7.90;3.60;;;;;;;11.49;40.71;101157.86;1683457;84;21028;-72
2022/05/07 03:59:16;;;;;;;5.10;3.00;;;;;;;11.84;40.04;101156.98;1818676;79;22960;-71
2022/05/07 04:01:44;;;;;;;4.50;3.40;;;;;;;11.90;39.92;101161.34;1747651;80;21236;-71
2022/05/07 04:04:10;;;;;;;5.80;4.17;;;;;;;11.94;39.94;101163.50;1756251;80;21122;-70
2022/05/07 04:06:36;;;;;;;8.65;3.22;;;;;;;11.95;39.81;101166.99;1740150;80;22104;-71
2022/05/07 04:09:03;;;;;;;6.00;3.50;;;;;;;11.97;39.72;101171.14;1761599;80;21014;-72
2022/05/07 04:11:32;;;;;;;6.13;3.17;;;;;;;12.01;39.66;101177.78;1757291;80;21119;-68
2022/05/07 04:14:01;;;;;;;5.93;3.00;;;;;;;12.01;39.60;101168.95;1735630;80;21604;-71
2022/05/07 04:16:28;;;;;;;;;;;;;;;12.04;39.49;101165.93;1775259;80;21042;-72
2022/05/07 04:18:59;;;;;;;5.13;3.07;;;;;;;12.19;39.65;101168.67;1755306;80;20165;-72
2022/05/07 04:21:25;;;;;;;;;;;;;;;12.44;39.11;101170.62;1763876;80;21629;-72
2022/05/07 04:23:52;;;;;;;5.03;3.57;;;;;;;12.76;38.65;101166.81;1756347;80;20158;-71
2022/05/07 04:26:19;;;;;;;8.20;4.05;;;;;;;13.06;38.31;101176.22;1756199;80;21072;-71
2022/05/07 04:28:48;;;;;;;6.72;2.52;;;;;;;13.48;37.53;101172.06;1756361;80;21054;-73
2022/05/07 04:31:16;;;;;;;3.77;3.35;;;;;;;13.89;36.63;101169.34;1757235;80;21513;-72
2022/05/07 04:33:43;;;;;;;6.85;2.67;;;;;;;14.24;36.37;101173.01;1759586;81;21141;-72
2022/05/07 04:36:11;;;;;;;7.12;2.83;;;;;;;14.76;35.17;101170.97;1761717;81;22178;-71
2022/05/07 04:38:39;;;;;;;6.67;3.58;;;;;;;15.02;34.45;101164.12;1763451;81;21553;-71
2022/05/07 04:41:07;;;;;;;7.58;3.52;;;;;;;15.09;34.52;101156.95;1757118;80;21006;-72
2022/05/07 04:43:34;;;;;;;7.62;2.90;;;;;;;14.96;34.42;101158.52;1760772;80;21497;-71
2022/05/07 04:46:01;;;;;;;5.08;3.40;;;;;;;14.92;34.38;101159.12;1763452;80;21501;-70
2022/05/07 04:48:28;;;;;;;5.62;2.55;;;;;;;14.98;34.48;101157.80;1763536;81;21195;-71
2022/05/07 04:50:55;;;;;;;4.45;2.75;;;;;;;15.24;33.87;101154.11;1763311;81;21657;-71
2022/05/07 04:53:38;;;;;;;4.65;2.83;;;;;;;15.67;33.13;101149.34;1763381;81;21032;-72
2022/05/07 04:56:09;;;;;;;5.78;3.05;;;;;;;15.81;32.45;101159.64;1757576;80;21045;-73
2022/05/07 04:58:37;;;;;;;4.03;3.05;;;;;;;15.33;32.87;101122.88;1761108;80;21023;-74
2022/05/07 05:01:03;;;;;;;;;;;;;;;15.53;33.34;101161.89;1753827;80;20986;-72
2022/05/07 05:03:31;;;;;;;5.45;2.30;;;;;;;15.58;33.29;101158.61;1763501;81;20160;-73
2022/05/07 05:06:00;;;;;;;3.72;2.95;;;;;;;15.60;32.96;101159.23;1754087;80;21109;-73
2022/05/07 05:08:30;;;;;;;7.12;3.47;;;;;;;15.48;32.96;101161.69;1734880;80;21107;-72
2022/05/07 05:10:56;;;;;;;2.42;2.15;;;;;;;15.30;33.27;101163.55;1738983;80;21084;-71
2022/05/07 05:13:25;;;;;;;3.90;2.87;;;;;;;15.31;33.73;101166.56;1759835;80;21473;-73
2022/05/07 05:15:52;;;;;;;8.93;3.35;;;;;;;15.65;33.57;101161.31;1765499;80;21152;-72
2022/05/07 05:18:22;;;;;;;5.35;2.30;;;;;;;16.07;32.77;101166.12;1761987;81;21054;-73
2022/05/07 05:20:49;;;;;;;12.58;2.65;;;;;;;16.40;32.06;101158.05;1758313;80;21105;-72
2022/05/07 05:23:20;;;;;;;2.80;2.45;;;;;;;16.37;31.79;101162.52;1745867;80;20989;-73
2022/05/07 05:25:48;;;;;;;6.60;3.25;;;;;;;15.97;32.51;101173.20;1732843;81;21378;-74
2022/05/07 05:28:16;;;;;;;6.72;3.60;;;;;;;15.68;32.99;101155.02;1728476;81;21044;-74
2022/05/07 05:30:42;;;;;;;;;;;;;;;15.50;33.30;101163.66;1735746;81;21061;-72
2022/05/07 05:33:10;;;;;;;4.58;3.05;;;;;;;15.41;33.80;101158.63;1731230;81;20196;-73
2022/05/07 05:35:39;;;;;;;4.97;3.17;;;;;;;15.22;34.32;101164.22;1713664;83;21029;-71
2022/05/07 05:38:05;;;;;;;3.50;3.20;;;;;;;15.05;34.73;101163.72;1703966;84;21185;-72
2022/05/07 05:40:32;;;;;;;;;;;;;;;15.08;35.15;101167.36;1732062;83;21625;-72
2022/05/07 05:42:58;;;;;;;3.60;2.98;;;;;;;15.13;35.09;101172.97;1704258;84;20498;-72
2022/05/07 05:45:25;;;;;;;5.45;3.25;;;;;;;14.95;35.54;101171.61;1712319;83;21028;-72
2022/05/07 05:47:51;;;;;;;;;;;;;;;14.90;36.04;101171.39;1693120;84;21052;-70
2022/05/07 05:50:17;;;;;;;4.60;3.12;;;;;;;14.93;36.37;101166.95;1682850;84;20166;-71
2022/05/07 05:52:45;;;;;;;3.40;3.10;;;;;;;15.01;36.24;101177.22;1683269;84;21032;-73
2022/05/07 05:55:12;;;;;;;6.95;3.10;;;;;;;15.11;36.01;101174.51;1682586;83;21092;-72
2022/05/07 05:57:39;;;;;;;6.70;3.77;;;;;;;15.20;35.68;101171.16;1691871;85;21203;-72
2022/05/07 06:00:07;;;;;;;7.08;3.87;;;;;;;15.27;35.63;101177.37;1702544;83;21064;-74
2022/05/07 06:02:37;;;;;;;5.10;3.65;;;;;;;15.27;35.67;101172.52;1687597;83;21043;-71
2022/05/07 06:05:06;;;;;;;6.08;3.08;;;;;;;15.37;35.76;101176.50;1707717;83;21030;-73
2022/05/07 06:07:34;;;;;;;6.80;3.22;;;;;;;15.64;35.59;101179.30;1701089;83;21648;-74
2022/05/07 06:10:01;;;;;;;5.65;3.60;;;;;;;15.94;34.43;101181.70;1689892;84;20997;-73
2022/05/07 06:12:28;;;;;;;4.00;3.55;;;;;;;16.10;34.54;101174.58;1720314;82;21057;-72
2022/05/07 06:14:55;;;;;;;6.97;4.30;;;;;;;16.37;34.19;101183.20;1740203;82;21008;-73
2022/05/07 06:17:25;;;;;;;6.45;3.80;;;;;;;16.55;33.01;101168.61;1731245;82;21136;-71
2022/05/07 06:19:52;;;;;;;4.20;3.50;;;;;;;16.58;32.16;101182.20;1724406;82;21121;-72
2022/05/07 06:22:18;;;;;;;9.00;3.77;;;;;;;16.64;32.62;101178.66;1714107;82;22217;-70
2022/05/07 06:27:33;;;;;;;4.15;3.62;;;;;;;17.17;31.63;101178.59;1716377;83;21006;-72
2022/05/07 06:30:04;;;;;;;9.33;4.42;;;;;;;17.37;30.76;101170.99;1712238;82;21093;-74
2022/05/07 06:32:35;;;;;;;6.75;3.87;;;;;;;17.59;30.60;101181.75;1708125;82;21098;-73
2022/05/07 06:35:06;;;;;;;4.60;3.40;;;;;;;17.96;30.17;101182.02;1720280;82;20994;-73
2022/05/07 06:37:37;;;;;;;4.33;3.58;;;;;;;18.36;29.64;101181.74;1720170;83;21085;-73
2022/05/07 06:40:06;;;;;;;6.00;3.70;;;;;;;18.39;29.22;101179.97;1719728;83;21073;-73
2022/05/07 06:42:35;;;;;;;8.03;4.12;;;;;;;18.23;29.48;101179.99;1719797;83;21033;-73
2022/05/07 06:45:05;;;;;;;7.35;4.28;;;;;;;18.03;29.46;101181.47;1719924;82;21455;-72
2022/05/07 06:47:32;;;;;;;5.35;4.33;;;;;;;17.90;29.89;101180.20;1720910;82;21549;-73
2022/05/07 06:49:58;;;;;;;5.45;4.53;;;;;;;17.93;30.07;101173.00;1719762;82;21173;-71
2022/05/07 06:52:25;;;;;;;7.08;3.58;;;;;;;18.11;29.77;101172.81;1721290;82;21117;-72
2022/05/07 06:54:52;;;;;;;8.55;4.15;;;;;;;17.98;29.61;101172.37;1719784;83;21073;-73
2022/05/07 06:57:18;;;;;;;;;;;;;;;17.98;29.61;101172.37;1713835;83;21545;-72
2022/05/07 06:59:46;;;;;;;11.75;4.42;;;;;;;17.83;30.13;101171.28;1709341;83;20124;-71
2022/05/07 07:02:13;;;;;;;7.47;4.47;;;;;;;17.60;30.66;101169.95;1698605;83;21033;-74
2022/05/07 07:04:41;;;;;;;5.58;4.35;;;;;;;17.60;30.66;101169.95;1717362;83;21157;-72
2022/05/07 07:07:08;;;;;;;5.22;3.52;;;;;;;17.75;30.77;101164.80;1713657;83;21113;-72
2022/05/07 07:09:35;;;;;;;7.22;3.83;;;;;;;17.87;30.14;101170.66;1718514;82;21022;-72
2022/05/07 07:12:06;;;;;;;7.50;4.55;;;;;;;17.97;30.35;101163.46;1730033;82;20963;-72
2022/05/07 07:14:33;;;;;;;5.87;3.92;;;;;;;18.35;29.70;101170.66;1718328;82;21049;-74
2022/05/07 07:17:18;;;;;;;6.62;4.05;;;;;;;18.35;29.70;101170.66;1716204;83;21112;-73
2022/05/07 07:19:45;;;;;;;3.50;3.20;;;;;;;18.33;29.61;101171.41;1716629;82;21086;-75
2022/05/07 07:22:13;;;;;;;4.45;3.72;;;;;;;18.30;29.76;101171.83;1699924;83;21064;-75
2022/05/07 07:24:39;;;;;;;5.15;3.87;;;;;;;18.27;29.75;101166.86;1669551;84;21084;-73
2022/05/07 07:27:06;;;;;;;;;;;;;;;18.28;29.71;101175.28;1684887;85;21150;-75
2022/05/07 07:29:33;;;;;;;6.65;3.45;;;;;;;18.26;29.66;101165.23;1685016;84;20157;-73
2022/05/07 07:31:59;;;;;;;7.47;3.85;;;;;;;18.12;29.71;101164.51;1682562;84;21562;-74
2022/05/07 07:34:25;;;;;;;;;;;;;;;18.12;29.71;101164.51;1698923;83;21148;-74
2022/05/07 07:36:52;;;;;;;5.92;3.92;;;;;;;18.06;29.54;101172.95;1715099;83;20110;-75
2022/05/07 07:39:20;;;;;;;5.58;4.22;;;;;;;17.95;29.38;101158.81;1695704;83;21597;-75
2022/05/07 07:41:46;;;;;;;4.33;3.60;;;;;;;17.92;29.71;101174.59;1709792;83;21115;-74
2022/05/07 07:44:12;;;;;;;6.78;3.95;;;;;;;17.92;29.67;101169.20;1713739;83;21099;-74
2022/05/07 07:49:23;;;;;;;7.33;3.90;;;;;;;17.88;28.75;101162.87;1714637;83;21061;-73
2022/05/07 07:51:50;;;;;;;;;;;;;;;17.87;29.20;101150.42;1716698;84;21579;-74
2022/05/07 07:54:16;;;;;;;4.75;4.00;;;;;;;18.09;28.72;101159.00;1714801;84;20146;-72
2022/05/07 07:56:44;;;;;;;16.07;4.40;;;;;;;18.13;28.64;101159.40;1694711;84;21040;-72
2022/05/07 07:59:11;;;;;;;7.85;4.03;;;;;;;18.23;28.65;101161.11;1709474;84;21598;-74
2022/05/07 08:01:38;;;;;;;7.65;4.08;;;;;;;18.33;28.81;101160.61;1695653;83;21558;-74
2022/05/07 08:04:07;;;;;;;9.30;4.20;;;;;;;18.50;28.53;101160.89;1703900;83;21147;-74
2022/05/07 08:06:33;;;;;;;11.60;4.92;;;;;;;18.62;28.22;101159.10;1719421;83;21873;-74
2022/05/07 08:11:49;;;;;;;4.78;3.92;;;;;;;18.73;27.86;101158.09;1701931;83;21508;-73
2022/05/07 08:14:15;;;;;;;6.00;4.17;;;;;;;18.73;27.86;101158.09;1720050;82;21021;-73
2022/05/07 08:16:44;;;;;;;4.97;4.40;;;;;;;18.89;27.10;101149.42;1731393;82;21016;-73
2022/05/07 08:19:12;;;;;;;6.00;3.47;;;;;;;18.89;27.10;101149.42;1719296;82;21509;-73
2022/05/07 08:21:39;;;;;;;3.67;2.75;;;;;;;19.00;27.23;101148.67;1700572;83;21056;-74
2022/05/07 08:24:06;;;;;;;4.20;3.25;;;;;;;19.10;27.35;101149.53;1711945;83;21045;-70
2022/05/07 08:26:32;;;;;;;10.35;3.77;;;;;;;19.08;26.88;101144.88;1727444;83;21122;-73
2022/05/07 08:28:58;;;;;;;;;;;;;;;19.13;26.97;101151.77;1706484;83;21114;-73
2022/05/07 08:31:25;;;;;;;5.58;3.47;;;;;;;19.16;27.04;101148.63;1703746;84;20144;-73
2022/05/07 08:33:54;;;;;;;3.62;3.15;;;;;;;19.11;26.87;101148.46;1704717;82;21041;-73
2022/05/07 08:36:20;;;;;;;4.87;3.20;;;;;;;19.15;26.66;101159.11;1692692;82;20988;-73
2022/05/07 08:38:47;;;;;;;5.42;3.50;;;;;;;19.15;26.41;101150.19;1695543;83;21538;-71
2022/05/07 08:41:13;;;;;;;4.97;3.25;;;;;;;19.13;26.47;101150.41;1713766;83;21133;-73
2022/05/07 08:43:42;;;;;;;3.70;3.40;;;;;;;19.17;26.85;101150.25;1683381;83;21033;-73
2022/05/07 08:46:13;;;;;;;5.65;4.37;;;;;;;19.14;26.64;101152.08;1682541;84;21153;-73
2022/05/07 08:48:41;;;;;;;9.15;3.95;;;;;;;19.18;27.01;101153.80;1659568;85;21085;-74
2022/05/07 08:51:09;;;;;;;5.22;3.98;;;;;;;19.20;26.55;101140.36;1677670;84;21105;-73
2022/05/07 08:53:36;;;;;;;8.78;4.03;;;;;;;19.29;26.67;101134.63;1695461;83;21069;-74
2022/05/07 08:56:04;;;;;;;3.58;3.25;;;;;;;19.44;26.11;101135.09;1673734;85;21023;-71
2022/05/07 08:58:31;;;;;;;5.15;3.67;;;;;;;19.53;25.79;101130.98;1655892;85;21085;-73
2022/05/07 09:00:59;;;;;;;4.60;3.25;;;;;;;19.61;25.17;101130.69;1648270;85;21107;-73
2022/05/07 09:03:27;;;;;;;5.47;3.00;;;;;;;19.70;24.95;101134.41;1644812;86;21117;-73
2022/05/07 09:05:54;;;;;;;3.62;3.10;;;;;;;19.72;24.71;101132.30;1673324;83;21016;-75
2022/05/07 09:08:26;;;;;;;3.87;3.45;;;;;;;19.79;24.81;101127.66;1676128;83;21103;-73
2022/05/07 09:10:54;;;;;;;5.90;2.95;;;;;;;19.95;24.65;101122.14;1675628;84;21528;-72
2022/05/07 09:13:20;;;;;;;6.25;2.55;;;;;;;20.04;23.87;101128.84;1682261;84;21074;-73
2022/05/07 09:15:58;;;;;;;3.77;2.30;;;;;;;19.91;23.69;101125.83;1685078;84;21561;-73
2022/05/07 09:18:26;;;;;;;13.80;3.60;;;;;;;19.87;24.16;101120.55;1697995;84;21506;-72
2022/05/07 09:21:16;;;;;;;2.87;2.60;;;;;;;19.94;24.21;101121.29;1687994;84;21873;-72
2022/05/07 09:24:07;;;;;;;15.80;2.65;;;;;;;20.05;24.30;101118.86;1671203;84;21014;-72
2022/05/07 09:26:40;;;;;;;8.50;3.85;;;;;;;20.16;24.14;101119.41;1683573;84;21109;-74
2022/05/07 09:29:09;;;;;;;6.03;2.58;;;;;;;20.29;24.18;101112.95;1689863;84;21526;-74
2022/05/07 09:31:42;;;;;;;6.60;2.62;;;;;;;20.43;24.05;101114.36;1671182;84;21086;-74
2022/05/07 09:37:03;;;;;;;3.10;2.02;;;;;;;20.41;22.94;101112.42;1668183;84;21062;-75
2022/05/07 09:39:34;;;;;;;7.97;2.45;;;;;;;20.25;23.16;101117.16;1675012;84;21406;-73
2022/05/07 09:42:02;;;;;;;6.27;2.37;;;;;;;20.08;23.31;101104.84;1678624;84;21064;-74
2022/05/07 09:44:28;;;;;;;4.45;2.50;;;;;;;20.01;23.71;101104.43;1666687;84;21697;-74
2022/05/07 09:46:57;;;;;;;5.75;2.33;;;;;;;20.11;23.77;101098.98;1685278;83;21150;-74
2022/05/07 09:49:28;;;;;;;3.50;2.22;;;;;;;20.25;23.91;101095.00;1653630;85;21025;-76
2022/05/07 09:51:55;;;;;;;4.83;2.30;;;;;;;20.41;23.59;101094.28;1686188;83;21106;-73
2022/05/07 10:00:01;;;;;;;3.00;2.20;;;;;;;20.37;22.89;101088.23;1678246;84;21164;-75
2022/05/07 10:02:33;;;;;;;2.50;1.95;;;;;;;20.21;22.83;101081.62;1670160;83;21138;-76
2022/05/07 10:05:23;;;;;;;2.15;1.90;;;;;;;20.23;22.99;101079.53;1669545;84;21070;-74
2022/05/07 10:08:26;;;;;;;3.77;2.52;;;;;;;20.22;22.94;101085.98;1661923;84;21254;-73
2022/05/07 10:10:56;;;;;;;4.37;2.80;;;;;;;20.20;23.26;101077.28;1663732;84;21059;-76
2022/05/07 10:13:25;;;;;;;5.53;2.40;;;;;;;20.08;23.15;101085.91;1669008;84;21148;-74
2022/05/07 10:16:04;;;;;;;3.62;2.37;;;;;;;19.98;23.18;101076.47;1659913;84;21097;-74
2022/05/07 10:18:41;;;;;;;5.03;2.55;;;;;;;19.92;23.60;101086.06;1660818;84;21049;-73
2022/05/07 10:21:17;;;;;;;3.47;3.08;;;;;;;19.83;22.99;101080.16;1659933;84;21057;-77
2022/05/07 10:23:55;;;;;;;5.50;2.33;;;;;;;19.69;23.33;101074.09;1697815;83;21003;-73
2022/05/07 10:26:26;;;;;;;2.90;2.58;;;;;;;19.71;23.77;101072.52;1693844;84;20994;-72
2022/05/07 10:28:55;;;;;;;4.20;2.83;;;;;;;19.82;23.60;101064.99;1683452;83;21015;-74
2022/05/07 10:31:23;;;;;;;3.08;2.67;;;;;;;19.83;23.32;101071.53;1708215;83;22927;-75
2022/05/07 10:33:51;;;;;;;5.10;2.52;;;;;;;19.88;23.58;101065.95;1695014;83;21106;-71
2022/05/07 10:36:19;;;;;;;2.55;2.27;;;;;;;19.94;23.80;101049.59;1664930;84;22372;-73
2022/05/07 10:38:46;;;;;;;4.65;2.27;;;;;;;20.21;23.75;101057.26;1663496;84;21054;-74
2022/05/07 10:41:18;;;;;;;4.75;2.12;;;;;;;20.42;23.03;101052.62;1633561;86;21526;-76
2022/05/07 10:44:04;;;;;;;2.90;2.40;;;;;;;20.64;22.31;101057.45;1656398;85;21113;-74
2022/05/07 10:46:42;;;;;;;3.45;2.47;;;;;;;20.71;21.78;101048.67;1698563;83;21914;-74
2022/05/07 10:49:08;;;;;;;;;;;;;;;20.67;22.21;101050.21;1690780;83;21021;-72
2022/05/07 10:51:39;;;;;;;5.70;3.37;;;;;;;20.63;22.16;101047.69;1683785;83;20176;-73
2022/05/07 10:54:21;;;;;;;3.47;2.47;;;;;;;20.52;22.16;101040.37;1690035;83;21093;-75
2022/05/07 10:56:52;;;;;;;4.72;2.72;;;;;;;20.34;22.46;101044.87;1695539;83;21006;-75
2022/05/07 10:59:21;;;;;;;6.62;2.70;;;;;;;20.25;22.98;101034.61;1732075;82;21124;-72
2022/05/07 11:01:49;;;;;;;4.40;2.77;;;;;;;20.30;22.65;101037.44;1691420;83;21014;-76
2022/05/07 11:04:18;;;;;;;4.42;2.62;;;;;;;20.35;22.87;101037.02;1698950;84;20984;-74
2022/05/07 11:06:51;;;;;;;3.37;2.25;;;;;;;20.44;22.91;101032.09;1690845;85;21054;-73
2022/05/07 11:09:26;;;;;;;6.03;2.22;;;;;;;20.59;22.71;101032.95;1692562;83;21065;-75
2022/05/07 11:11:56;;;;;;;3.00;2.70;;;;;;;20.72;22.35;101017.82;1676317;82;21117;-74
2022/05/07 11:14:32;;;;;;;3.77;2.55;;;;;;;20.80;22.52;101024.75;1693195;82;20982;-74
2022/05/07 11:17:03;;;;;;;3.15;2.55;;;;;;;20.86;22.44;101025.13;1678968;83;21098;-75
2022/05/07 11:19:34;;;;;;;2.83;2.55;;;;;;;20.94;22.12;101018.52;1684206;83;21049;-76
2022/05/07 11:22:03;;;;;;;2.92;2.37;;;;;;;20.90;22.20;101016.00;1681448;83;21070;-74
2022/05/07 11:24:31;;;;;;;5.70;2.20;;;;;;;20.79;21.99;101014.45;1687085;83;21038;-74
2022/05/07 11:27:05;;;;;;;6.12;2.70;;;;;;;20.64;22.17;101020.88;1705304;84;21110;-74
2022/05/07 11:29:32;;;;;;;6.10;2.17;;;;;;;20.59;22.03;101019.41;1688248;83;21102;-73
2022/05/07 11:32:06;;;;;;;4.05;2.67;;;;;;;20.46;22.19;101006.95;1695312;84;21069;-72
2022/05/07 11:34:39;;;;;;;5.42;2.45;;;;;;;20.47;22.57;101005.86;1668270;83;21055;-74
2022/05/07 11:37:22;;;;;;;3.42;2.45;;;;;;;20.57;22.45;101001.22;1657865;86;21131;-75
2022/05/07 11:39:59;;;;;;;3.33;2.50;;;;;;;20.66;22.61;100990.31;1660520;85;21211;-73
2022/05/07 11:42:36;;;;;;;2.42;2.22;;;;;;;20.68;22.33;100996.34;1634715;86;21076;-75
2022/05/07 11:45:26;;;;;;;14.65;2.35;;;;;;;20.68;22.75;100988.22;1658014;86;21042;-74
2022/05/07 11:48:02;;;;;;;3.27;2.47;;;;;;;20.76;22.34;100991.08;1649001;86;21032;-75
2022/05/07 11:50:34;;;;;;;3.02;2.22;;;;;;;20.85;22.64;100989.64;1619692;88;21094;-75
2022/05/07 11:53:17;;;;;;;3.42;2.65;;;;;;;20.89;22.14;100985.88;1674937;85;21002;-77
2022/05/07 11:55:46;;;;;;;3.27;2.55;;;;;;;20.88;21.93;100982.91;1677011;84;21682;-77
2022/05/07 11:58:20;;;;;;;6.92;2.62;;;;;;;20.73;22.06;100986.94;1668335;84;21497;-79
2022/05/07 12:00:49;;;;;;;5.78;2.25;;;;;;;20.66;22.23;100979.48;1673376;84;21490;-77